sensor_id;sensor_type;location;lat;lon;timestamp;pressure;altitude;pressure_sealevel;temperature;humidity
62800;BME280;48842;51.046;13.796;2023-05-21T00:02:09;100615.09;;;17.18;60.66
62800;BME280;48842;51.046;13.796;2023-05-21T00:04:36;100609.81;;;17.16;60.47
62800;BME280;48842;51.046;13.796;2023-05-21T00:07:02;100620.47;;;17.13;60.52
62800;BME280;48842;51.046;13.796;2023-05-21T00:09:27;100613.47;;;17.09;61.05
62800;BME280;48842;51.046;13.796;2023-05-21T00:11:53;100602.97;;;17.06;61.41
62800;BME280;48842;51.046;13.796;2023-05-21T00:14:18;100602.13;;;17.02;61.29
62800;BME280;48842;51.046;13.796;2023-05-21T00:16:43;100596.84;;;17.01;61.33
62800;BME280;48842;51.046;13.796;2023-05-21T00:19:10;100600.44;;;17.00;61.30
62800;BME280;48842;51.046;13.796;2023-05-21T00:21:36;100596.91;;;16.99;61.80
62800;BME280;48842;51.046;13.796;2023-05-21T00:24:02;100594.28;;;16.98;61.12
62800;BME280;48842;51.046;13.796;2023-05-21T00:26:27;100589.91;;;16.95;61.47
62800;BME280;48842;51.046;13.796;2023-05-21T00:28:52;100588.25;;;16.91;61.93
62800;BME280;48842;51.046;13.796;2023-05-21T00:31:17;100587.41;;;16.87;62.02
62800;BME280;48842;51.046;13.796;2023-05-21T00:33:43;100587.41;;;16.86;61.49
62800;BME280;48842;51.046;13.796;2023-05-21T00:36:08;100584.78;;;16.84;61.49
62800;BME280;48842;51.046;13.796;2023-05-21T00:38:34;100583.97;;;16.82;61.47
62800;BME280;48842;51.046;13.796;2023-05-21T00:41:01;100581.34;;;16.81;61.85
62800;BME280;48842;51.046;13.796;2023-05-21T00:43:27;100580.47;;;16.79;61.53
62800;BME280;48842;51.046;13.796;2023-05-21T00:45:53;100574.31;;;16.78;61.89
62800;BME280;48842;51.046;13.796;2023-05-21T00:48:20;100569.06;;;16.77;61.54
62800;BME280;48842;51.046;13.796;2023-05-21T00:50:46;100564.66;;;16.75;61.76
62800;BME280;48842;51.046;13.796;2023-05-21T00:53:12;100569.97;;;16.74;61.79
62800;BME280;48842;51.046;13.796;2023-05-21T00:55:39;100570.91;;;16.71;62.14
62800;BME280;48842;51.046;13.796;2023-05-21T00:58:05;100566.53;;;16.69;62.22
62800;BME280;48842;51.046;13.796;2023-05-21T01:00:33;100568.28;;;16.70;61.78
62800;BME280;48842;51.046;13.796;2023-05-21T01:02:59;100561.22;;;16.70;62.45
62800;BME280;48842;51.046;13.796;2023-05-21T01:05:26;100566.50;;;16.72;62.08
62800;BME280;48842;51.046;13.796;2023-05-21T01:07:52;100568.22;;;16.73;61.94
62800;BME280;48842;51.046;13.796;2023-05-21T01:10:17;100568.22;;;16.73;62.45
62800;BME280;48842;51.046;13.796;2023-05-21T01:12:43;100568.22;;;16.73;62.07
62800;BME280;48842;51.046;13.796;2023-05-21T01:15:09;100566.50;;;16.72;62.04
62800;BME280;48842;51.046;13.796;2023-05-21T01:17:35;100568.28;;;16.70;62.15
62800;BME280;48842;51.046;13.796;2023-05-21T01:20:01;100563.88;;;16.69;61.93
62800;BME280;48842;51.046;13.796;2023-05-21T01:22:34;100560.41;;;16.67;62.56
62800;BME280;48842;51.046;13.796;2023-05-21T01:24:59;100562.16;;;16.68;62.44
62800;BME280;48842;51.046;13.796;2023-05-21T01:27:26;100559.50;;;16.68;62.48
62800;BME280;48842;51.046;13.796;2023-05-21T01:29:51;100563.06;;;16.67;62.54
62800;BME280;48842;51.046;13.796;2023-05-21T01:32:25;100559.56;;;16.65;62.09
62800;BME280;48842;51.046;13.796;2023-05-21T01:35:05;100562.25;;;16.63;62.84
62800;BME280;48842;51.046;13.796;2023-05-21T01:37:58;100550.81;;;16.60;62.64
62800;BME280;48842;51.046;13.796;2023-05-21T01:40:33;100548.25;;;16.56;62.47
62800;BME280;48842;51.046;13.796;2023-05-21T01:43:00;100550.06;;;16.54;62.51
62800;BME280;48842;51.046;13.796;2023-05-21T01:45:30;100547.44;;;16.51;62.74
62800;BME280;48842;51.046;13.796;2023-05-21T01:47:56;100543.97;;;16.49;62.80
62800;BME280;48842;51.046;13.796;2023-05-21T01:50:23;100542.19;;;16.48;63.00
62800;BME280;48842;51.046;13.796;2023-05-21T01:52:51;100538.72;;;16.46;63.13
62800;BME280;48842;51.046;13.796;2023-05-21T01:55:17;100540.53;;;16.44;63.09
62800;BME280;48842;51.046;13.796;2023-05-21T01:57:43;100532.59;;;16.43;63.24
62800;BME280;48842;51.046;13.796;2023-05-21T02:00:08;100537.94;;;16.39;63.38
62800;BME280;48842;51.046;13.796;2023-05-21T02:02:35;100534.50;;;16.36;63.54
62800;BME280;48842;51.046;13.796;2023-05-21T02:05:00;100527.47;;;16.33;63.55
62800;BME280;48842;51.046;13.796;2023-05-21T02:07:25;100527.50;;;16.32;63.15
62800;BME280;48842;51.046;13.796;2023-05-21T02:09:53;100523.09;;;16.31;63.30
62800;BME280;48842;51.046;13.796;2023-05-21T02:12:18;100525.78;;;16.29;63.36
62800;BME280;48842;51.046;13.796;2023-05-21T02:14:43;100523.13;;;16.29;63.11
62800;BME280;48842;51.046;13.796;2023-05-21T02:17:10;100532.84;;;16.29;63.08
62800;BME280;48842;51.046;13.796;2023-05-21T02:19:35;100528.41;;;16.29;63.62
62800;BME280;48842;51.046;13.796;2023-05-21T02:22:01;100522.31;;;16.27;63.51
62800;BME280;48842;51.046;13.796;2023-05-21T02:24:26;100535.53;;;16.26;63.13
62800;BME280;48842;51.046;13.796;2023-05-21T02:26:51;100530.31;;;16.22;63.57
62800;BME280;48842;51.046;13.796;2023-05-21T02:29:17;100523.31;;;16.18;63.51
62800;BME280;48842;51.046;13.796;2023-05-21T02:31:42;100519.81;;;16.16;63.49
62800;BME280;48842;51.046;13.796;2023-05-21T02:34:07;100530.44;;;16.13;63.78
62800;BME280;48842;51.046;13.796;2023-05-21T02:36:32;100526.13;;;16.09;63.44
62800;BME280;48842;51.046;13.796;2023-05-21T02:39:00;100528.78;;;16.06;63.50
62800;BME280;48842;51.046;13.796;2023-05-21T02:41:25;100533.25;;;16.04;64.10
62800;BME280;48842;51.046;13.796;2023-05-21T02:43:50;100528.88;;;16.01;64.03
62800;BME280;48842;51.046;13.796;2023-05-21T02:46:16;100530.66;;;15.99;64.24
62800;BME280;48842;51.046;13.796;2023-05-21T02:48:41;100528.91;;;15.98;64.37
62800;BME280;48842;51.046;13.796;2023-05-21T02:51:06;100524.53;;;15.96;64.12
62800;BME280;48842;51.046;13.796;2023-05-21T02:53:31;100526.28;;;15.97;64.50
62800;BME280;48842;51.046;13.796;2023-05-21T02:55:57;100522.84;;;15.93;64.08
62800;BME280;48842;51.046;13.796;2023-05-21T02:58:22;100524.56;;;15.94;64.21
62800;BME280;48842;51.046;13.796;2023-05-21T03:00:49;100511.38;;;15.93;64.37
62800;BME280;48842;51.046;13.796;2023-05-21T03:03:14;100518.44;;;15.92;64.03
62800;BME280;48842;51.046;13.796;2023-05-21T03:05:40;100516.69;;;15.91;64.21
62800;BME280;48842;51.046;13.796;2023-05-21T03:08:05;100514.97;;;15.88;64.63
62800;BME280;48842;51.046;13.796;2023-05-21T03:10:30;100512.34;;;15.87;64.64
62800;BME280;48842;51.046;13.796;2023-05-21T03:12:56;100511.47;;;15.86;64.59
62800;BME280;48842;51.046;13.796;2023-05-21T03:15:21;100506.22;;;15.85;64.65
62800;BME280;48842;51.046;13.796;2023-05-21T03:17:48;100510.66;;;15.84;64.20
62800;BME280;48842;51.046;13.796;2023-05-21T03:20:14;100517.69;;;15.84;64.53
62800;BME280;48842;51.046;13.796;2023-05-21T03:22:41;100507.13;;;15.84;64.99
62800;BME280;48842;51.046;13.796;2023-05-21T03:25:07;100517.66;;;15.85;64.34
62800;BME280;48842;51.046;13.796;2023-05-21T03:27:33;100508.88;;;15.85;64.72
62800;BME280;48842;51.046;13.796;2023-05-21T03:29:58;100516.78;;;15.86;64.91
62800;BME280;48842;51.046;13.796;2023-05-21T03:32:23;100517.66;;;15.85;64.32
62800;BME280;48842;51.046;13.796;2023-05-21T03:34:48;100515.00;;;15.85;65.06
62800;BME280;48842;51.046;13.796;2023-05-21T03:37:14;100515.94;;;15.84;64.83
62800;BME280;48842;51.046;13.796;2023-05-21T03:39:39;100517.69;;;15.84;65.03
62800;BME280;48842;51.046;13.796;2023-05-21T03:42:04;100519.47;;;15.83;64.92
62800;BME280;48842;51.046;13.796;2023-05-21T03:44:30;100510.63;;;15.86;64.43
62800;BME280;48842;51.046;13.796;2023-05-21T03:46:56;100511.47;;;15.86;64.78
62800;BME280;48842;51.046;13.796;2023-05-21T03:49:21;100509.69;;;15.88;64.73
62800;BME280;48842;51.046;13.796;2023-05-21T03:51:47;100514.03;;;15.93;64.98
62800;BME280;48842;51.046;13.796;2023-05-21T03:54:12;100525.44;;;15.96;64.72
62800;BME280;48842;51.046;13.796;2023-05-21T03:56:37;100520.13;;;15.98;65.12
62800;BME280;48842;51.046;13.796;2023-05-21T03:59:02;100523.59;;;16.00;64.67
62800;BME280;48842;51.046;13.796;2023-05-21T04:01:28;100527.13;;;16.02;65.24
62800;BME280;48842;51.046;13.796;2023-05-21T04:03:53;100526.19;;;16.03;64.91
62800;BME280;48842;51.046;13.796;2023-05-21T04:06:18;100517.38;;;16.04;64.38
62800;BME280;48842;51.046;13.796;2023-05-21T04:08:43;100519.09;;;16.07;64.51
62800;BME280;48842;51.046;13.796;2023-05-21T04:11:09;100521.72;;;16.08;64.53
62800;BME280;48842;51.046;13.796;2023-05-21T04:13:34;100516.38;;;16.11;64.31
62800;BME280;48842;51.046;13.796;2023-05-21T04:15:59;100520.75;;;16.14;64.93
62800;BME280;48842;51.046;13.796;2023-05-21T04:18:25;100520.72;;;16.17;64.34
62800;BME280;48842;51.046;13.796;2023-05-21T04:20:50;100525.94;;;16.20;64.96
62800;BME280;48842;51.046;13.796;2023-05-21T04:23:15;100524.09;;;16.23;64.34
62800;BME280;48842;51.046;13.796;2023-05-21T04:25:41;100519.69;;;16.26;64.59
62800;BME280;48842;51.046;13.796;2023-05-21T04:28:06;100525.78;;;16.29;64.56
62800;BME280;48842;51.046;13.796;2023-05-21T04:30:32;100524.84;;;16.32;64.30
62800;BME280;48842;51.046;13.796;2023-05-21T04:33:00;100526.56;;;16.36;64.41
62800;BME280;48842;51.046;13.796;2023-05-21T04:35:25;100526.50;;;16.39;64.67
62800;BME280;48842;51.046;13.796;2023-05-21T04:37:51;100531.75;;;16.42;64.05
62800;BME280;48842;51.046;13.796;2023-05-21T04:40:18;100533.44;;;16.46;64.16
62800;BME280;48842;51.046;13.796;2023-05-21T04:42:48;100524.59;;;16.49;63.79
62800;BME280;48842;51.046;13.796;2023-05-21T04:45:15;100524.50;;;16.53;63.65
62800;BME280;48842;51.046;13.796;2023-05-21T04:47:41;100525.28;;;16.58;63.76
62800;BME280;48842;51.046;13.796;2023-05-21T04:50:07;100527.84;;;16.65;63.96
62800;BME280;48842;51.046;13.796;2023-05-21T04:52:32;100519.78;;;16.71;63.81
62800;BME280;48842;51.046;13.796;2023-05-21T04:54:58;100518.75;;;16.78;63.59
62800;BME280;48842;51.046;13.796;2023-05-21T04:57:24;100522.13;;;16.85;63.71
62800;BME280;48842;51.046;13.796;2023-05-21T04:59:49;100519.41;;;16.92;63.69
62800;BME280;48842;51.046;13.796;2023-05-21T05:02:14;100520.13;;;16.99;63.66
62800;BME280;48842;51.046;13.796;2023-05-21T05:04:39;100524.38;;;17.08;63.35
62800;BME280;48842;51.046;13.796;2023-05-21T05:07:05;100524.25;;;17.16;63.07
62800;BME280;48842;51.046;13.796;2023-05-21T05:09:30;100512.59;;;17.24;62.89
62800;BME280;48842;51.046;13.796;2023-05-21T05:11:57;100513.28;;;17.33;63.01
62800;BME280;48842;51.046;13.796;2023-05-21T05:14:23;100526.31;;;17.42;62.36
62800;BME280;48842;51.046;13.796;2023-05-21T05:16:48;100513.78;;;17.50;62.29
62800;BME280;48842;51.046;13.796;2023-05-21T05:19:13;100509.19;;;17.60;62.39
62800;BME280;48842;51.046;13.796;2023-05-21T05:21:38;100511.56;;;17.71;62.03
62800;BME280;48842;51.046;13.796;2023-05-21T05:24:04;100506.97;;;17.79;61.90
62800;BME280;48842;51.046;13.796;2023-05-21T05:26:29;100503.25;;;17.88;62.06
62800;BME280;48842;51.046;13.796;2023-05-21T05:28:54;100498.63;;;17.98;61.77
62800;BME280;48842;51.046;13.796;2023-05-21T05:31:20;100501.06;;;18.07;61.64
62800;BME280;48842;51.046;13.796;2023-05-21T05:33:46;100497.28;;;18.16;61.44
62800;BME280;48842;51.046;13.796;2023-05-21T05:36:11;100495.28;;;18.25;61.33
62800;BME280;48842;51.046;13.796;2023-05-21T05:38:37;100487.09;;;18.35;61.19
62800;BME280;48842;51.046;13.796;2023-05-21T05:41:02;100490.38;;;18.44;60.89
62800;BME280;48842;51.046;13.796;2023-05-21T05:43:27;100487.47;;;18.54;60.96
62800;BME280;48842;51.046;13.796;2023-05-21T05:45:52;100485.47;;;18.63;60.93
62800;BME280;48842;51.046;13.796;2023-05-21T05:48:18;100481.63;;;18.74;60.86
62800;BME280;48842;51.046;13.796;2023-05-21T05:50:44;100481.38;;;18.83;60.72
62800;BME280;48842;51.046;13.796;2023-05-21T05:53:09;100490.84;;;18.93;60.76
62800;BME280;48842;51.046;13.796;2023-05-21T05:55:37;100480.88;;;19.01;60.50
62800;BME280;48842;51.046;13.796;2023-05-21T05:58:02;100471.78;;;19.10;60.33
62800;BME280;48842;51.046;13.796;2023-05-21T06:00:27;100471.47;;;19.21;60.34
62800;BME280;48842;51.046;13.796;2023-05-21T06:02:52;100465.88;;;19.30;60.29
62800;BME280;48842;51.046;13.796;2023-05-21T06:05:18;100460.28;;;19.40;60.14
62800;BME280;48842;51.046;13.796;2023-05-21T06:07:43;100466.16;;;19.51;60.04
62800;BME280;48842;51.046;13.796;2023-05-21T06:10:08;100469.31;;;19.62;60.18
62800;BME280;48842;51.046;13.796;2023-05-21T06:12:34;100472.50;;;19.74;59.97
62800;BME280;48842;51.046;13.796;2023-05-21T06:14:59;100466.84;;;19.86;59.69
62800;BME280;48842;51.046;13.796;2023-05-21T06:17:25;100476.22;;;19.98;59.76
62800;BME280;48842;51.046;13.796;2023-05-21T06:19:51;100467.84;;;20.09;59.54
62800;BME280;48842;51.046;13.796;2023-05-21T06:22:16;100462.13;;;20.21;59.63
62800;BME280;48842;51.046;13.796;2023-05-21T06:24:41;100461.81;;;20.30;59.36
62800;BME280;48842;51.046;13.796;2023-05-21T06:27:06;100456.16;;;20.39;59.15
62800;BME280;48842;51.046;13.796;2023-05-21T06:29:32;100459.44;;;20.48;59.32
62800;BME280;48842;51.046;13.796;2023-05-21T06:31:57;100466.16;;;20.58;58.96
62800;BME280;48842;51.046;13.796;2023-05-21T06:34:22;100460.63;;;20.64;59.33
62800;BME280;48842;51.046;13.796;2023-05-21T06:36:47;100459.44;;;20.73;59.39
62800;BME280;48842;51.046;13.796;2023-05-21T06:39:13;100461.81;;;20.81;59.23
62800;BME280;48842;51.046;13.796;2023-05-21T06:41:38;100463.34;;;20.88;58.81
62800;BME280;48842;51.046;13.796;2023-05-21T06:44:04;100470.19;;;20.95;58.59
62800;BME280;48842;51.046;13.796;2023-05-21T06:46:30;100459.31;;;21.01;58.36
62800;BME280;48842;51.046;13.796;2023-05-21T06:48:55;100467.13;;;21.06;58.60
62800;BME280;48842;51.046;13.796;2023-05-21T06:51:20;100463.44;;;21.10;58.38
62800;BME280;48842;51.046;13.796;2023-05-21T06:53:46;100463.25;;;21.15;58.46
62800;BME280;48842;51.046;13.796;2023-05-21T06:56:12;100468.47;;;21.18;58.31
62800;BME280;48842;51.046;13.796;2023-05-21T06:58:37;100467.41;;;21.22;58.04
62800;BME280;48842;51.046;13.796;2023-05-21T07:01:02;100462.88;;;21.24;57.90
62800;BME280;48842;51.046;13.796;2023-05-21T07:03:27;100476.03;;;21.28;57.98
62800;BME280;48842;51.046;13.796;2023-05-21T07:05:53;100460.88;;;21.31;57.98
62800;BME280;48842;51.046;13.796;2023-05-21T07:08:18;100468.75;;;21.34;57.84
62800;BME280;48842;51.046;13.796;2023-05-21T07:10:46;100465.94;;;21.37;58.02
62800;BME280;48842;51.046;13.796;2023-05-21T07:13:11;100468.56;;;21.38;57.79
62800;BME280;48842;51.046;13.796;2023-05-21T07:15:37;100467.63;;;21.39;58.19
62800;BME280;48842;51.046;13.796;2023-05-21T07:18:02;100468.44;;;21.41;57.71
62800;BME280;48842;51.046;13.796;2023-05-21T07:20:27;100463.88;;;21.45;57.77
62800;BME280;48842;51.046;13.796;2023-05-21T07:22:53;100468.19;;;21.48;57.50
62800;BME280;48842;51.046;13.796;2023-05-21T07:25:18;100458.34;;;21.50;57.49
62800;BME280;48842;51.046;13.796;2023-05-21T07:27:43;100459.19;;;21.52;57.50
62800;BME280;48842;51.046;13.796;2023-05-21T07:30:09;100460.91;;;21.53;57.41
62800;BME280;48842;51.046;13.796;2023-05-21T07:32:34;100461.72;;;21.55;57.57
62800;BME280;48842;51.046;13.796;2023-05-21T07:35:00;100463.47;;;21.56;57.45
62800;BME280;48842;51.046;13.796;2023-05-21T07:37:26;100461.59;;;21.58;57.71
62800;BME280;48842;51.046;13.796;2023-05-21T07:39:51;100456.19;;;21.59;57.88
62800;BME280;48842;51.046;13.796;2023-05-21T07:42:17;100456.97;;;21.63;57.79
62800;BME280;48842;51.046;13.796;2023-05-21T07:44:42;100461.38;;;21.64;57.81
62800;BME280;48842;51.046;13.796;2023-05-21T07:47:07;100465.75;;;21.65;57.87
62800;BME280;48842;51.046;13.796;2023-05-21T07:49:32;100462.16;;;21.66;57.82
62800;BME280;48842;51.046;13.796;2023-05-21T07:51:58;100454.09;;;21.68;57.73
62800;BME280;48842;51.046;13.796;2023-05-21T07:54:23;100462.88;;;21.70;58.07
62800;BME280;48842;51.046;13.796;2023-05-21T07:56:48;100461.91;;;21.72;57.78
62800;BME280;48842;51.046;13.796;2023-05-21T07:59:15;100456.44;;;21.75;57.89
62800;BME280;48842;51.046;13.796;2023-05-21T08:01:41;100456.31;;;21.78;57.96
62800;BME280;48842;51.046;13.796;2023-05-21T08:04:07;100457.22;;;21.79;57.33
62800;BME280;48842;51.046;13.796;2023-05-21T08:06:32;100458.00;;;21.81;57.42
62800;BME280;48842;51.046;13.796;2023-05-21T08:08:59;100453.56;;;21.82;57.69
62800;BME280;48842;51.046;13.796;2023-05-21T08:11:25;100459.63;;;21.85;57.80
62800;BME280;48842;51.046;13.796;2023-05-21T08:13:51;100463.00;;;21.89;57.69
62800;BME280;48842;51.046;13.796;2023-05-21T08:16:16;100458.38;;;21.94;57.46
62800;BME280;48842;51.046;13.796;2023-05-21T08:18:41;100457.31;;;21.98;57.57
62800;BME280;48842;51.046;13.796;2023-05-21T08:21:06;100458.94;;;22.02;57.82
62800;BME280;48842;51.046;13.796;2023-05-21T08:23:32;100463.19;;;22.06;58.01
62800;BME280;48842;51.046;13.796;2023-05-21T08:25:57;100463.88;;;22.11;57.39
62800;BME280;48842;51.046;13.796;2023-05-21T08:28:23;100466.34;;;22.16;57.33
62800;BME280;48842;51.046;13.796;2023-05-21T08:30:48;100468.81;;;22.21;57.01
62800;BME280;48842;51.046;13.796;2023-05-21T08:33:13;100463.28;;;22.25;56.81
62800;BME280;48842;51.046;13.796;2023-05-21T08:35:39;100474.59;;;22.32;56.79
62800;BME280;48842;51.046;13.796;2023-05-21T08:38:04;100469.13;;;22.35;56.38
62800;BME280;48842;51.046;13.796;2023-05-21T08:40:29;100472.53;;;22.39;56.45
62800;BME280;48842;51.046;13.796;2023-05-21T08:42:55;100462.59;;;22.42;56.23
62800;BME280;48842;51.046;13.796;2023-05-21T08:45:21;100461.59;;;22.45;56.18
62800;BME280;48842;51.046;13.796;2023-05-21T08:47:47;100465.78;;;22.51;56.40
62800;BME280;48842;51.046;13.796;2023-05-21T08:50:16;100463.78;;;22.56;55.84
62800;BME280;48842;51.046;13.796;2023-05-21T08:52:43;100469.78;;;22.61;55.72
62800;BME280;48842;51.046;13.796;2023-05-21T08:55:08;100464.25;;;22.65;55.83
62800;BME280;48842;51.046;13.796;2023-05-21T08:57:35;100465.84;;;22.70;55.61
62800;BME280;48842;51.046;13.796;2023-05-21T09:00:00;100463.88;;;22.73;55.51
62800;BME280;48842;51.046;13.796;2023-05-21T09:02:28;100458.47;;;22.75;55.17
62800;BME280;48842;51.046;13.796;2023-05-21T09:04:58;100456.63;;;22.77;55.19
62800;BME280;48842;51.046;13.796;2023-05-21T09:07:27;100460.91;;;22.81;55.25
62800;BME280;48842;51.046;13.796;2023-05-21T09:09:55;100457.19;;;22.83;55.26
62800;BME280;48842;51.046;13.796;2023-05-21T09:12:23;100456.19;;;22.86;55.21
62800;BME280;48842;51.046;13.796;2023-05-21T09:14:49;100458.81;;;22.88;54.83
62800;BME280;48842;51.046;13.796;2023-05-21T09:17:15;100457.00;;;22.88;54.52
62800;BME280;48842;51.046;13.796;2023-05-21T09:20:03;100462.41;;;22.87;54.65
62800;BME280;48842;51.046;13.796;2023-05-21T09:22:32;100462.28;;;22.90;54.45
62800;BME280;48842;51.046;13.796;2023-05-21T09:24:57;100459.53;;;22.91;54.41
62800;BME280;48842;51.046;13.796;2023-05-21T09:27:23;100452.38;;;22.92;54.58
62800;BME280;48842;51.046;13.796;2023-05-21T09:29:48;100448.63;;;22.96;54.55
62800;BME280;48842;51.046;13.796;2023-05-21T09:32:13;100441.34;;;22.99;54.48
62800;BME280;48842;51.046;13.796;2023-05-21T09:34:41;100450.88;;;23.05;54.21
62800;BME280;48842;51.046;13.796;2023-05-21T09:37:06;100450.81;;;23.07;54.21
62800;BME280;48842;51.046;13.796;2023-05-21T09:39:31;100447.94;;;23.11;53.77
62800;BME280;48842;51.046;13.796;2023-05-21T09:41:57;100454.81;;;23.17;54.06
62800;BME280;48842;51.046;13.796;2023-05-21T09:44:23;100444.84;;;23.21;53.80
62800;BME280;48842;51.046;13.796;2023-05-21T09:46:48;100448.97;;;23.28;53.62
62800;BME280;48842;51.046;13.796;2023-05-21T09:49:23;100439.72;;;23.35;53.11
62800;BME280;48842;51.046;13.796;2023-05-21T09:51:53;100436.75;;;23.41;52.94
62800;BME280;48842;51.046;13.796;2023-05-21T09:54:21;100439.91;;;23.49;52.75
62800;BME280;48842;51.046;13.796;2023-05-21T09:56:46;100443.16;;;23.56;52.36
62800;BME280;48842;51.046;13.796;2023-05-21T09:59:12;100437.28;;;23.67;52.43
62800;BME280;48842;51.046;13.796;2023-05-21T10:01:37;100445.03;;;23.73;52.57
62800;BME280;48842;51.046;13.796;2023-05-21T10:04:06;100438.59;;;23.77;52.31
62800;BME280;48842;51.046;13.796;2023-05-21T10:06:35;100445.34;;;23.84;52.41
62800;BME280;48842;51.046;13.796;2023-05-21T10:09:09;100435.25;;;23.91;51.50
62800;BME280;48842;51.046;13.796;2023-05-21T10:11:35;100439.34;;;23.98;51.28
62800;BME280;48842;51.046;13.796;2023-05-21T10:14:13;100439.03;;;24.04;50.83
62800;BME280;48842;51.046;13.796;2023-05-21T10:16:41;100443.03;;;24.13;50.27
62800;BME280;48842;51.046;13.796;2023-05-21T10:19:06;100440.94;;;24.20;50.07
62800;BME280;48842;51.046;13.796;2023-05-21T10:21:35;100445.97;;;24.26;49.79
62800;BME280;48842;51.046;13.796;2023-05-21T10:24:01;100441.16;;;24.33;49.21
62800;BME280;48842;51.046;13.796;2023-05-21T10:26:27;100437.22;;;24.40;49.45
62800;BME280;48842;51.046;13.796;2023-05-21T10:28:55;100440.34;;;24.48;49.77
62800;BME280;48842;51.046;13.796;2023-05-21T10:31:21;100442.59;;;24.56;50.78
62800;BME280;48842;51.046;13.796;2023-05-21T10:33:47;100443.38;;;24.60;51.46
62800;BME280;48842;51.046;13.796;2023-05-21T10:36:15;100435.31;;;24.60;52.02
62800;BME280;48842;51.046;13.796;2023-05-21T10:38:42;100438.91;;;24.58;52.05
62800;BME280;48842;51.046;13.796;2023-05-21T10:41:08;100431.91;;;24.56;51.15
62800;BME280;48842;51.046;13.796;2023-05-21T10:46:18;100434.81;;;24.51;50.36
62800;BME280;48842;51.046;13.796;2023-05-21T10:52:03;100429.63;;;24.66;49.73
62800;BME280;48842;51.046;13.796;2023-05-21T10:54:46;100424.22;;;24.83;49.45
62800;BME280;48842;51.046;13.796;2023-05-21T10:57:43;100418.97;;;24.98;47.47
62800;BME280;48842;51.046;13.796;2023-05-21T11:00:13;100426.59;;;25.05;47.02
62800;BME280;48842;51.046;13.796;2023-05-21T11:02:41;100423.81;;;25.07;46.41
62800;BME280;48842;51.046;13.796;2023-05-21T11:05:06;100416.59;;;25.09;46.02
62800;BME280;48842;51.046;13.796;2023-05-21T11:07:52;100412.94;;;25.10;44.05
62800;BME280;48842;51.046;13.796;2023-05-21T11:10:36;100415.47;;;25.13;44.21
62800;BME280;48842;51.046;13.796;2023-05-21T11:13:14;100415.28;;;25.16;43.72
62800;BME280;48842;51.046;13.796;2023-05-21T11:21:35;100420.13;;;25.25;43.49
62800;BME280;48842;51.046;13.796;2023-05-21T11:24:03;100410.16;;;25.27;43.23
62800;BME280;48842;51.046;13.796;2023-05-21T11:29:17;100395.50;;;25.35;43.48
62800;BME280;48842;51.046;13.796;2023-05-21T11:31:45;100406.84;;;25.40;43.44
62800;BME280;48842;51.046;13.796;2023-05-21T11:34:21;100407.41;;;25.45;43.85
62800;BME280;48842;51.046;13.796;2023-05-21T11:39:40;100399.44;;;25.59;43.02
62800;BME280;48842;51.046;13.796;2023-05-21T11:42:05;100396.44;;;25.66;42.50
62800;BME280;48842;51.046;13.796;2023-05-21T11:47:10;100404.19;;;25.86;42.21
62800;BME280;48842;51.046;13.796;2023-05-21T11:49:36;100396.50;;;25.94;42.10
62800;BME280;48842;51.046;13.796;2023-05-21T11:52:03;100394.28;;;26.03;41.79
62800;BME280;48842;51.046;13.796;2023-05-21T11:54:30;100392.66;;;26.15;41.85
62800;BME280;48842;51.046;13.796;2023-05-21T11:57:01;100396.81;;;26.20;41.89
62800;BME280;48842;51.046;13.796;2023-05-21T11:59:26;100396.44;;;26.26;42.28
62800;BME280;48842;51.046;13.796;2023-05-21T12:01:52;100385.59;;;26.28;42.45
62800;BME280;48842;51.046;13.796;2023-05-21T12:04:18;100401.41;;;26.33;42.95
62800;BME280;48842;51.046;13.796;2023-05-21T12:06:43;100398.38;;;26.39;42.73
62800;BME280;48842;51.046;13.796;2023-05-21T12:09:09;100397.03;;;26.46;42.91
62800;BME280;48842;51.046;13.796;2023-05-21T12:11:37;100393.19;;;26.50;42.94
62800;BME280;48842;51.046;13.796;2023-05-21T12:14:09;100404.91;;;26.49;42.95
62800;BME280;48842;51.046;13.796;2023-05-21T12:16:35;100397.91;;;26.46;42.92
62800;BME280;48842;51.046;13.796;2023-05-21T12:19:02;100396.06;;;26.47;43.34
62800;BME280;48842;51.046;13.796;2023-05-21T12:21:28;100393.19;;;26.50;43.12
62800;BME280;48842;51.046;13.796;2023-05-21T12:23:54;100400.91;;;26.56;43.35
62800;BME280;48842;51.046;13.796;2023-05-21T12:26:19;100398.00;;;26.59;43.07
62800;BME280;48842;51.046;13.796;2023-05-21T12:28:45;100401.97;;;26.68;43.42
62800;BME280;48842;51.046;13.796;2023-05-21T12:31:14;100389.00;;;26.89;43.33
62800;BME280;48842;51.046;13.796;2023-05-21T12:33:43;100388.09;;;27.17;42.98
62800;BME280;48842;51.046;13.796;2023-05-21T12:36:08;100387.59;;;27.40;41.90
62800;BME280;48842;51.046;13.796;2023-05-21T12:38:34;100388.19;;;27.58;41.54
62800;BME280;48842;51.046;13.796;2023-05-21T12:41:04;100383.47;;;27.74;41.54
62800;BME280;48842;51.046;13.796;2023-05-21T12:43:31;100386.41;;;27.84;40.69
62800;BME280;48842;51.046;13.796;2023-05-21T12:45:56;100384.91;;;27.80;40.92
62800;BME280;48842;51.046;13.796;2023-05-21T12:48:21;100379.19;;;27.72;40.47
62800;BME280;48842;51.046;13.796;2023-05-21T12:50:47;100376.56;;;27.57;40.65
62800;BME280;48842;51.046;13.796;2023-05-21T12:53:12;100371.44;;;27.40;40.24
62800;BME280;48842;51.046;13.796;2023-05-21T12:55:37;100375.78;;;27.28;41.06
62800;BME280;48842;51.046;13.796;2023-05-21T12:58:03;100376.25;;;27.20;41.37